Time;durP1;ratioP1;P1;durP2;ratioP2;P2;SDS_P1;SDS_P2;PMS_P1;PMS_P2;Temp;Humidity;BMP_temperature;BMP_pressure;BME280_temperature;BME280_humidity;BME280_pressure;Samples;Min_cycle;Max_cycle;Signal;HPM_P1;HPM_P2
2023/09/22 00:02:25;;;;;;;9.50;9.20;;;;;;;-141.02;100.00;38864.41;5133399;27;20241;-57
2023/09/22 00:04:52;;;;;;;10.05;9.75;;;;;;;-141.02;100.00;38852.91;5133275;27;20714;-57
2023/09/22 00:07:21;;;;;;;10.20;9.90;;;;;;;-141.02;100.00;38843.31;5133935;27;20196;-58
2023/09/22 00:09:49;;;;;;;11.48;11.18;;;;;;;-141.02;100.00;38837.56;5132983;27;20665;-58
2023/09/22 00:12:16;;;;;;;12.50;12.10;;;;;;;-141.02;100.00;38812.63;5133553;27;20245;-57
2023/09/22 00:14:45;;;;;;;12.80;12.40;;;;;;;-141.02;100.00;38829.88;5133426;27;20275;-58
2023/09/22 00:17:12;;;;;;;12.85;12.45;;;;;;;-141.02;100.00;38816.47;5133124;27;20193;-62
2023/09/22 00:19:39;;;;;;;13.35;12.95;;;;;;;-141.02;100.00;38818.38;5133323;27;20192;-57
2023/09/22 00:22:06;;;;;;;14.30;13.80;;;;;;;-141.02;100.00;38787.72;5133327;27;20192;-57
2023/09/22 00:24:34;;;;;;;14.80;14.30;;;;;;;-141.02;100.00;38814.56;5133425;27;20282;-57
2023/09/22 00:27:01;;;;;;;14.55;14.05;;;;;;;-141.02;100.00;38824.13;5133347;27;20192;-57
2023/09/22 00:29:28;;;;;;;14.77;14.25;;;;;;;-141.02;99.71;38818.38;5133298;27;20655;-57
2023/09/22 00:31:55;;;;;;;14.95;14.45;;;;;;;-141.02;100.00;38835.63;5133120;27;20228;-58
2023/09/22 00:34:22;;;;;;;14.63;14.13;;;;;;;-141.02;100.00;38845.22;5133567;27;20196;-59
2023/09/22 00:36:52;;;;;;;14.50;14.00;;;;;;;-141.02;100.00;38841.41;5133208;27;20272;-58
2023/09/22 00:39:19;;;;;;;13.50;13.10;;;;;;;-141.02;100.00;38849.06;5132923;27;20218;-59
2023/09/22 00:42:01;;;;;;;12.27;11.88;;;;;;;-141.02;100.00;38856.72;5133234;27;20674;-58
2023/09/22 00:44:28;;;;;;;13.48;13.07;;;;;;;-141.02;100.00;38872.06;5132814;27;20753;-58
2023/09/22 00:46:56;;;;;;;17.75;17.05;;;;;;;-141.02;100.00;38893.16;5132777;27;20195;-60
2023/09/22 00:49:24;;;;;;;19.23;18.33;;;;;;;-141.02;100.00;38906.59;5133283;27;20188;-61
2023/09/22 00:51:51;;;;;;;19.02;18.15;;;;;;;-141.02;100.00;38887.41;5132693;27;20235;-61
2023/09/22 00:54:19;;;;;;;18.45;17.65;;;;;;;-141.02;100.00;38852.91;5132780;28;20626;-61
2023/09/22 00:56:47;;;;;;;23.05;21.95;;;;;;;-141.02;100.00;38845.22;5135137;27;20271;-64
2023/09/22 00:59:16;;;;;;;27.35;25.85;;;;;;;-141.02;100.00;38804.97;5137243;27;20204;-64
2023/09/22 01:01:43;;;;;;;25.60;24.20;;;;;;;-141.02;100.00;38758.94;5136921;27;20188;-63
2023/09/22 01:04:10;;;;;;;24.48;23.17;;;;;;;-141.02;100.00;38741.69;5136855;27;20196;-62
2023/09/22 01:06:38;;;;;;;24.70;23.40;;;;;;;-141.02;100.00;38665.00;5136818;27;20192;-61
2023/09/22 01:09:05;;;;;;;23.83;22.52;;;;;;;-141.02;100.00;38599.81;5136718;27;20296;-61
2023/09/22 01:11:33;;;;;;;22.30;21.20;;;;;;;-141.02;100.00;38526.94;5136764;27;20327;-61
2023/09/22 01:14:00;;;;;;;21.95;20.85;;;;;;;-141.02;100.00;38465.59;5136904;27;20188;-60
2023/09/22 01:16:29;;;;;;;22.15;21.05;;;;;;;-141.02;100.00;38473.25;5136590;27;20569;-60
2023/09/22 01:18:57;;;;;;;22.40;21.20;;;;;;;-141.02;100.00;38454.09;5136790;27;20193;-60
2023/09/22 01:21:29;;;;;;;21.10;20.10;;;;;;;-141.02;100.00;38406.16;5136856;27;20192;-60
2023/09/22 01:23:57;;;;;;;24.35;22.98;;;;;;;-141.02;100.00;38465.59;5136685;27;20548;-61
2023/09/22 01:26:25;;;;;;;24.10;22.75;;;;;;;-141.02;100.00;38473.25;5136715;27;20269;-61
2023/09/22 01:28:52;;;;;;;23.65;22.35;;;;;;;-141.02;100.00;38467.50;5136917;27;20328;-61
2023/09/22 01:31:19;;;;;;;30.98;29.17;;;;;;;-141.02;100.00;38433.00;5136206;27;20722;-64
2023/09/22 01:33:46;;;;;;;37.83;35.53;;;;;;;-141.02;100.00;38450.25;5136622;27;20203;-62
2023/09/22 01:36:14;;;;;;;38.58;36.17;;;;;;;-141.02;100.00;38457.91;5136174;27;20196;-64
2023/09/22 01:38:43;;;;;;;38.92;36.53;;;;;;;-141.02;100.00;38419.56;5136477;27;20196;-65
2023/09/22 01:41:11;;;;;;;36.88;34.67;;;;;;;-141.02;100.00;38477.09;5136073;27;20667;-63
2023/09/22 01:43:39;;;;;;;37.03;34.83;;;;;;;-141.02;100.00;38461.75;5136014;27;20192;-62
2023/09/22 01:46:06;;;;;;;36.47;34.28;;;;;;;-141.02;100.00;38404.25;5136300;27;20272;-61
2023/09/22 01:48:33;;;;;;;35.80;33.70;;;;;;;-141.02;100.00;38419.56;5137074;27;20607;-61
2023/09/22 01:51:02;;;;;;;35.47;33.45;;;;;;;-141.02;100.00;38394.66;5136189;27;20323;-60
2023/09/22 01:53:29;;;;;;;35.90;33.80;;;;;;;-141.02;100.00;38411.91;5135854;27;20196;-60
2023/09/22 01:55:58;;;;;;;35.05;33.05;;;;;;;-141.02;100.00;38386.97;5135811;27;20189;-59
2023/09/22 01:58:25;;;;;;;34.50;32.60;;;;;;;-141.02;100.00;38369.72;5136461;27;20196;-68
2023/09/22 02:00:53;;;;;;;34.22;32.35;;;;;;;-141.02;100.00;38423.41;5136033;27;20295;-59
2023/09/22 02:03:20;;;;;;;33.30;31.50;;;;;;;-141.02;100.00;38423.41;5136156;27;20239;-58
2023/09/22 02:05:47;;;;;;;32.55;30.85;;;;;;;-141.02;100.00;38419.56;5135577;27;20224;-58
2023/09/22 02:08:14;;;;;;;28.33;26.92;;;;;;;-141.02;100.00;38419.56;5135368;27;20196;-58
2023/09/22 02:10:41;;;;;;;28.30;26.90;;;;;;;-141.02;100.00;38402.31;5135265;27;20386;-58
2023/09/22 02:13:10;;;;;;;26.67;25.38;;;;;;;-141.02;100.00;38436.84;5135813;27;20196;-58
2023/09/22 02:15:37;;;;;;;30.65;29.15;;;;;;;-141.02;100.00;38469.44;5135451;27;20193;-58
2023/09/22 02:18:04;;;;;;;32.22;30.63;;;;;;;-141.02;100.00;38433.00;5135651;27;20199;-58
2023/09/22 02:20:31;;;;;;;31.58;30.02;;;;;;;-141.02;100.00;38440.66;5135664;27;20192;-59
2023/09/22 02:22:59;;;;;;;31.13;29.63;;;;;;;-141.02;100.00;38431.09;5135784;27;20288;-58
2023/09/22 02:25:26;;;;;;;30.38;28.88;;;;;;;-141.02;100.00;38400.41;5135480;27;20204;-58
2023/09/22 02:27:56;;;;;;;30.50;29.00;;;;;;;-141.02;100.00;38408.06;5135224;27;20195;-58
2023/09/22 02:30:26;;;;;;;29.83;28.42;;;;;;;-141.02;100.00;38385.06;5135132;27;20188;-58
2023/09/22 02:32:54;;;;;;;29.13;27.73;;;;;;;-141.02;100.00;38415.75;5135039;27;20220;-58
2023/09/22 02:35:22;;;;;;;28.70;27.33;;;;;;;-141.02;100.00;38423.41;5135358;27;20218;-58
2023/09/22 02:37:50;;;;;;;28.52;27.23;;;;;;;-141.02;100.00;38431.09;5135360;27;20269;-58
2023/09/22 02:40:17;;;;;;;28.77;27.42;;;;;;;-141.02;100.00;37530.09;5135220;27;20188;-58
2023/09/22 02:42:44;;;;;;;28.23;26.92;;;;;;;-141.02;100.00;38442.59;5135281;27;20275;-58
2023/09/22 02:45:11;;;;;;;28.15;26.85;;;;;;;-141.02;100.00;38465.59;5135391;27;20188;-58
2023/09/22 02:47:41;;;;;;;27.95;26.65;;;;;;;-141.02;100.00;38492.44;5135143;27;20220;-58
2023/09/22 02:50:19;;;;;;;28.05;26.75;;;;;;;-141.02;100.00;38452.16;5134792;27;20714;-58
2023/09/22 02:52:45;;;;;;;26.60;25.40;;;;;;;-141.02;100.00;38392.75;5134646;27;20248;-57
2023/09/22 02:55:13;;;;;;;26.42;25.23;;;;;;;-141.02;100.00;38350.56;5134754;27;20199;-58
2023/09/22 02:57:42;;;;;;;27.92;26.63;;;;;;;-141.02;100.00;38354.41;5134619;27;20196;-58
2023/09/22 03:00:14;;;;;;;28.20;26.90;;;;;;;-141.02;100.00;38325.63;5134966;27;20567;-58
2023/09/22 03:02:43;;;;;;;27.70;26.40;;;;;;;-141.02;100.00;38362.06;5134844;27;20216;-57
2023/09/22 03:05:10;;;;;;;27.73;26.42;;;;;;;-141.02;100.00;38342.88;5134525;27;20188;-58
2023/09/22 03:07:37;;;;;;;26.92;25.73;;;;;;;-141.02;100.00;38400.41;5134401;27;20224;-57
2023/09/22 03:10:06;;;;;;;26.00;24.80;;;;;;;-141.02;100.00;38415.75;5134347;27;20236;-58
2023/09/22 03:12:34;;;;;;;24.92;23.83;;;;;;;-141.02;100.00;38386.97;5134594;27;20334;-57
2023/09/22 03:15:26;;;;;;;25.20;24.10;;;;;;;-141.02;100.00;38431.09;5134475;27;20619;-58
2023/09/22 03:17:54;;;;;;;24.90;23.80;;;;;;;-141.02;100.00;38373.56;5134490;27;20204;-58
2023/09/22 03:20:22;;;;;;;24.35;23.33;;;;;;;-141.02;100.00;38436.84;5133548;27;20235;-57
2023/09/22 03:22:49;;;;;;;24.20;23.20;;;;;;;-141.02;100.00;38392.75;5134421;27;20192;-58
2023/09/22 03:25:17;;;;;;;25.48;24.38;;;;;;;-141.02;100.00;38385.06;5134122;27;20241;-58
2023/09/22 03:27:44;;;;;;;25.02;23.92;;;;;;;-141.02;100.00;38363.97;5134283;27;20283;-58
2023/09/22 03:30:11;;;;;;;24.05;23.05;;;;;;;-141.02;100.00;38304.53;5133966;27;20202;-58
2023/09/22 03:32:39;;;;;;;22.15;21.25;;;;;;;-141.02;100.00;38340.97;5133846;27;20635;-58
2023/09/22 03:35:09;;;;;;;20.73;19.92;;;;;;;-141.02;100.00;38396.56;5134203;27;20200;-58
2023/09/22 03:37:36;;;;;;;19.90;19.10;;;;;;;-141.02;100.00;38339.06;5133796;27;20192;-57
2023/09/22 03:40:13;;;;;;;19.60;18.80;;;;;;;-141.02;100.00;38170.34;5133897;27;20196;-58
2023/09/22 03:42:40;;;;;;;20.83;19.92;;;;;;;-141.02;100.00;38137.75;5133732;27;20220;-58
2023/09/22 03:45:09;;;;;;;18.80;18.00;;;;;;;-141.02;100.00;38110.91;5133992;27;20246;-58
2023/09/22 03:47:36;;;;;;;19.15;18.35;;;;;;;-141.02;100.00;38105.16;5133930;27;20200;-58
2023/09/22 03:50:05;;;;;;;17.33;16.63;;;;;;;-141.02;100.00;38068.75;5133662;27;20306;-58
2023/09/22 03:52:33;;;;;;;18.20;17.40;;;;;;;-141.02;100.00;38011.22;5133686;27;20228;-57
2023/09/22 03:55:00;;;;;;;18.45;17.65;;;;;;;-141.02;100.00;38066.81;5133592;27;20196;-58
2023/09/22 03:57:27;;;;;;;19.80;19.00;;;;;;;-141.02;100.00;38174.19;5133500;27;20249;-58
2023/09/22 03:59:54;;;;;;;19.65;18.85;;;;;;;-141.02;100.00;38231.69;5133460;27;20192;-58
2023/09/22 04:02:21;;;;;;;22.38;21.38;;;;;;;-141.02;100.00;38342.88;5133425;27;20620;-57
2023/09/22 04:04:48;;;;;;;22.98;21.98;;;;;;;-141.02;100.00;38503.94;5133677;27;20192;-58
2023/09/22 04:07:15;;;;;;;22.02;21.13;;;;;;;-141.02;100.00;38668.81;5133806;27;20283;-58
2023/09/22 04:09:44;;;;;;;21.45;20.55;;;;;;;-141.02;100.00;39025.47;5133400;27;20228;-58
2023/09/22 04:12:11;;;;;;;20.08;19.27;;;;;;;-141.02;100.00;39313.13;5133212;27;20732;-58
2023/09/22 04:14:38;;;;;;;19.40;18.70;;;;;;;-141.02;100.00;39769.56;5133490;27;20193;-57
2023/09/22 04:17:07;;;;;;;20.00;19.20;;;;;;;-141.02;100.00;40072.63;5133487;27;20319;-58
2023/09/22 04:19:36;;;;;;;19.83;19.13;;;;;;;-141.02;100.00;40481.22;5133223;27;20621;-58
2023/09/22 04:22:03;;;;;;;19.38;18.67;;;;;;;-141.02;100.00;40675.00;5133471;27;20302;-57
2023/09/22 04:24:32;;;;;;;17.83;17.23;;;;;;;-141.02;100.00;41150.81;5133409;27;20275;-57
2023/09/22 04:27:06;;;;;;;17.17;16.58;;;;;;;-141.02;100.00;41477.03;5133327;27;20195;-57
2023/09/22 04:29:35;;;;;;;16.98;16.38;;;;;;;-141.02;100.00;41895.38;5133048;27;20662;-57
2023/09/22 04:32:03;;;;;;;16.70;16.17;;;;;;;-141.02;100.00;41772.56;5133235;27;20231;-57
2023/09/22 04:34:29;;;;;;;16.40;15.90;;;;;;;-141.02;100.00;42248.53;5132943;27;20275;-58
2023/09/22 04:36:59;;;;;;;16.05;15.55;;;;;;;-141.02;100.00;42544.16;5133296;27;20275;-57
2023/09/22 04:39:26;;;;;;;15.10;14.60;;;;;;;-141.02;100.00;42463.53;5132887;27;20205;-57
2023/09/22 04:41:53;;;;;;;14.57;14.18;;;;;;;-141.02;100.00;42139.13;5133234;27;20195;-57
2023/09/22 04:44:22;;;;;;;15.25;14.75;;;;;;;-141.02;100.00;41828.22;5132849;27;20189;-58
2023/09/22 04:46:49;;;;;;;14.05;13.65;;;;;;;-141.02;100.00;41619.03;5132857;27;20195;-57
2023/09/22 04:49:15;;;;;;;14.10;13.70;;;;;;;-141.02;100.00;41534.59;5132799;27;20658;-57
2023/09/22 04:51:43;;;;;;;12.73;12.32;;;;;;;-141.02;100.00;41342.69;5132994;27;20315;-57
2023/09/22 04:54:10;;;;;;;12.10;11.70;;;;;;;-141.02;100.00;41135.47;5132796;27;20188;-57
2023/09/22 04:56:37;;;;;;;12.10;11.70;;;;;;;-141.02;100.00;40893.72;5133023;27;20566;-57
2023/09/22 04:59:04;;;;;;;12.15;11.75;;;;;;;-141.02;100.00;40924.41;5133083;27;20279;-57
2023/09/22 05:01:33;;;;;;;12.20;11.80;;;;;;;-141.02;100.00;41001.16;5132725;27;20318;-57
2023/09/22 05:04:00;;;;;;;11.40;11.10;;;;;;;-141.02;100.00;40924.41;5133012;27;20192;-58
2023/09/22 05:06:27;;;;;;;12.00;11.60;;;;;;;-141.02;100.00;40784.34;5132954;27;20676;-58
2023/09/22 05:08:55;;;;;;;12.20;11.80;;;;;;;-141.02;100.00;40592.50;5132984;27;20265;-58
2023/09/22 05:11:22;;;;;;;12.18;11.77;;;;;;;-141.02;100.00;40538.78;5132479;27;20603;-58
2023/09/22 05:13:50;;;;;;;12.32;11.93;;;;;;;-141.02;100.00;40463.97;5133078;27;20228;-57
2023/09/22 05:16:18;;;;;;;12.10;11.70;;;;;;;-141.02;100.00;40544.53;5132572;27;20196;-57
2023/09/22 05:18:47;;;;;;;11.45;11.15;;;;;;;-141.02;100.00;40594.41;5132554;27;20287;-58
2023/09/22 05:21:14;;;;;;;11.45;11.15;;;;;;;-141.02;100.00;40642.38;5132494;27;20204;-57
2023/09/22 05:23:41;;;;;;;11.50;11.20;;;;;;;-141.02;100.00;40665.41;5132520;27;20739;-58
2023/09/22 05:26:09;;;;;;;11.50;11.20;;;;;;;-141.02;100.00;40728.72;5132433;27;20196;-58
2023/09/22 05:28:37;;;;;;;11.77;11.40;;;;;;;-141.02;100.00;40899.47;5132502;27;20201;-57
2023/09/22 05:31:04;;;;;;;12.10;11.70;;;;;;;-141.02;100.00;41005.00;5132459;27;20573;-58
2023/09/22 05:33:32;;;;;;;11.60;11.30;;;;;;;-141.02;100.00;40970.47;5132341;27;20778;-59
2023/09/22 05:36:00;;;;;;;11.25;10.95;;;;;;;-141.02;100.00;40916.75;5132370;27;20279;-59
2023/09/22 05:38:27;;;;;;;12.60;12.20;;;;;;;-141.02;100.00;40740.22;5132592;27;20283;-58
2023/09/22 05:40:54;;;;;;;13.13;12.73;;;;;;;-141.02;100.00;40536.88;5132410;27;20560;-58
2023/09/22 05:43:22;;;;;;;13.82;13.43;;;;;;;-141.02;100.00;40412.16;5135429;27;20193;-58
2023/09/22 05:45:53;;;;;;;14.70;14.20;;;;;;;-141.02;100.00;40579.06;5136348;27;20249;-58
2023/09/22 05:48:21;;;;;;;14.90;14.40;;;;;;;-141.02;100.00;40444.78;5136026;27;20641;-58
2023/09/22 05:50:56;;;;;;;15.85;15.25;;;;;;;-141.02;100.00;40322.00;5135943;27;20199;-59
2023/09/22 05:53:25;;;;;;;15.55;15.05;;;;;;;-141.02;100.00;40291.31;5136444;27;20238;-58
2023/09/22 05:56:04;;;;;;;15.73;15.23;;;;;;;-141.02;100.00;40199.22;5135911;27;20689;-58
2023/09/22 05:58:32;;;;;;;15.00;14.50;;;;;;;-141.02;100.00;40216.50;5135920;27;20196;-58
2023/09/22 06:00:58;;;;;;;14.13;13.73;;;;;;;-141.02;100.00;40107.16;5135816;27;20199;-58
2023/09/22 06:03:25;;;;;;;15.20;14.70;;;;;;;-141.02;100.00;40226.09;5135688;27;20243;-58
2023/09/22 06:05:54;;;;;;;15.40;14.90;;;;;;;-141.02;100.00;40233.75;5135954;27;20225;-59
2023/09/22 06:08:20;;;;;;;15.05;14.55;;;;;;;-141.02;100.00;40195.41;5135957;27;20188;-59
2023/09/22 06:10:49;;;;;;;15.35;14.85;;;;;;;-141.02;100.00;40410.25;5135483;27;20307;-60
2023/09/22 06:13:17;;;;;;;15.70;15.20;;;;;;;-141.02;100.00;40134.00;5135808;27;20220;-60
2023/09/22 06:15:44;;;;;;;15.25;14.75;;;;;;;-141.02;100.00;40063.03;5135742;27;20288;-60
2023/09/22 06:18:12;;;;;;;14.73;14.23;;;;;;;-141.02;100.00;40061.13;5135438;27;20287;-62
2023/09/22 06:20:39;;;;;;;13.65;13.25;;;;;;;-141.02;100.00;39957.53;5136436;27;20261;-60
2023/09/22 06:23:06;;;;;;;14.10;13.60;;;;;;;-141.02;100.00;39994.00;5135401;27;20196;-60
2023/09/22 06:25:34;;;;;;;13.85;13.35;;;;;;;-141.02;100.00;39911.50;5136203;27;20248;-60
2023/09/22 06:28:05;;;;;;;13.85;13.43;;;;;;;-141.02;100.00;40116.75;5135553;27;20228;-60
2023/09/22 06:30:34;;;;;;;13.45;13.05;;;;;;;-141.02;100.00;40325.84;5136002;27;20189;-60
2023/09/22 06:33:03;;;;;;;14.00;13.50;;;;;;;-141.02;100.00;39972.88;5135135;27;20224;-60
2023/09/22 06:35:30;;;;;;;15.40;14.80;;;;;;;-141.02;100.00;39853.97;5135515;27;20193;-60
2023/09/22 06:37:57;;;;;;;14.80;14.30;;;;;;;-141.02;100.00;39919.19;5135123;27;20647;-60
2023/09/22 06:40:24;;;;;;;13.95;13.45;;;;;;;-141.02;100.00;40174.31;5135324;27;20275;-60
2023/09/22 06:42:51;;;;;;;14.27;13.77;;;;;;;-141.02;100.00;40195.41;5135346;27;20230;-60
2023/09/22 06:45:20;;;;;;;14.73;14.13;;;;;;;-141.02;100.00;40087.97;5135176;27;20725;-60
2023/09/22 06:47:46;;;;;;;14.88;14.27;;;;;;;-141.02;100.00;40176.22;5135192;27;20248;-60
2023/09/22 06:50:13;;;;;;;14.52;14.02;;;;;;;-141.02;100.00;40341.19;5135169;27;20275;-60
2023/09/22 06:52:40;;;;;;;15.27;14.57;;;;;;;-141.02;100.00;40245.28;5135040;27;20224;-60
2023/09/22 06:55:09;;;;;;;16.52;15.63;;;;;;;-141.02;100.00;40295.16;5134006;27;20284;-60
2023/09/22 06:57:40;;;;;;;17.40;16.40;;;;;;;-141.02;98.01;40264.47;5134606;27;20640;-60
2023/09/22 07:00:15;;;;;;;16.23;15.32;;;;;;;-141.02;99.30;40368.03;5134783;27;20191;-60
2023/09/22 07:02:44;;;;;;;17.25;16.05;;;;;;;-141.02;93.83;40291.31;5134591;27;20199;-59
2023/09/22 07:05:12;;;;;;;17.17;15.98;;;;;;;-141.02;92.14;40322.00;5134630;27;20199;-59
2023/09/22 07:07:39;;;;;;;17.15;15.95;;;;;;;-141.02;91.59;40287.47;5134796;27;20231;-59
2023/09/22 07:10:09;;;;;;;17.17;15.98;;;;;;;-141.02;92.37;40134.00;5134565;27;20236;-59
2023/09/22 07:12:37;;;;;;;16.25;15.25;;;;;;;-141.02;94.54;40348.88;5134284;27;20706;-59
2023/09/22 07:15:05;;;;;;;17.42;16.15;;;;;;;-141.02;88.49;40295.16;5134664;27;20193;-59
2023/09/22 07:17:32;;;;;;;16.88;15.80;;;;;;;-141.02;89.96;40521.50;5134613;27;20196;-59
2023/09/22 07:20:01;;;;;;;17.50;16.30;;;;;;;-141.02;88.11;40475.47;5134561;27;20276;-59
2023/09/22 07:22:30;;;;;;;17.85;16.55;;;;;;;-141.02;87.91;40628.94;5134164;27;20700;-59
2023/09/22 07:24:57;;;;;;;18.02;16.63;;;;;;;-141.02;84.32;40813.13;5134458;27;20192;-59
2023/09/22 07:27:24;;;;;;;18.58;17.08;;;;;;;-141.02;83.06;41116.28;5134417;27;20199;-59
2023/09/22 07:29:51;;;;;;;18.13;16.83;;;;;;;-141.02;86.54;41031.84;5134337;27;20227;-59
2023/09/22 07:32:18;;;;;;;18.40;17.00;;;;;;;-141.02;84.23;41052.97;5133903;27;20357;-59
2023/09/22 07:34:46;;;;;;;17.98;16.67;;;;;;;-141.02;85.58;41264.03;5134328;27;20192;-59
2023/09/22 07:37:14;;;;;;;18.10;16.80;;;;;;;-141.02;85.26;41160.41;5134111;27;20679;-59
2023/09/22 07:39:42;;;;;;;17.70;16.40;;;;;;;-141.02;85.21;41239.09;5133839;27;20726;-58
2023/09/22 07:42:10;;;;;;;18.15;16.85;;;;;;;-141.02;85.37;41308.16;5134013;27;20193;-59
2023/09/22 07:44:37;;;;;;;18.05;16.75;;;;;;;-141.02;81.21;41528.84;5134086;27;20567;-59
2023/09/22 07:47:10;;;;;;;17.98;16.67;;;;;;;-141.02;79.22;41014.59;5133814;27;20224;-59
2023/09/22 07:49:37;;;;;;;18.83;17.40;;;;;;;-141.02;81.15;40932.09;5134000;27;20207;-58
2023/09/22 07:52:04;;;;;;;18.75;17.35;;;;;;;-141.02;82.72;40932.09;5133924;27;20189;-59
2023/09/22 07:54:32;;;;;;;18.45;17.05;;;;;;;-141.02;83.24;40966.63;5133800;27;20231;-58
2023/09/22 07:56:59;;;;;;;18.08;16.77;;;;;;;-141.02;82.65;40887.97;5133888;27;20252;-59
2023/09/22 07:59:29;;;;;;;17.77;16.58;;;;;;;-141.02;84.27;40575.22;5133798;27;20203;-58
2023/09/22 08:01:56;;;;;;;17.73;16.45;;;;;;;-141.02;82.69;41035.69;5133762;27;20200;-59
2023/09/22 08:04:24;;;;;;;17.80;16.58;;;;;;;-141.02;77.29;41083.66;5133510;27;20598;-58
2023/09/22 08:06:50;;;;;;;18.83;17.42;;;;;;;-141.02;76.84;41166.16;5133196;27;20662;-58
2023/09/22 08:09:17;;;;;;;18.50;17.10;;;;;;;-141.02;74.98;41206.47;5133797;27;20287;-59
2023/09/22 08:11:46;;;;;;;18.90;17.45;;;;;;;-141.02;73.53;41463.59;5092635;28;20231;-59
2023/09/22 08:14:13;;;;;;;18.48;17.08;;;;;;;-141.02;74.08;41204.53;5092595;28;20313;-58
2023/09/22 08:16:40;;;;;;;18.70;17.30;;;;;;;-141.02;75.48;41315.84;5092296;28;20288;-58
2023/09/22 08:19:10;;;;;;;18.88;17.38;;;;;;;-141.02;72.33;41507.72;5092575;28;20228;-58
2023/09/22 08:21:37;;;;;;;18.63;17.23;;;;;;;-141.02;71.60;41833.97;5092276;28;20580;-58
2023/09/22 08:24:05;;;;;;;18.63;17.23;;;;;;;-141.02;67.87;41707.31;5092152;28;20663;-58
2023/09/22 08:26:32;;;;;;;19.25;17.75;;;;;;;-141.02;68.08;41778.31;5092822;28;20231;-58
2023/09/22 08:29:04;;;;;;;19.15;17.75;;;;;;;-141.02;67.88;41880.03;5092105;28;20204;-58
2023/09/22 08:31:31;;;;;;;18.90;17.50;;;;;;;-141.02;66.54;42045.09;5092119;28;20189;-58
2023/09/22 08:33:58;;;;;;;18.92;17.52;;;;;;;-141.02;66.94;42285.00;5092554;28;20229;-58
2023/09/22 08:36:25;;;;;;;19.15;17.75;;;;;;;-141.02;66.15;42430.91;5092068;28;20277;-58
2023/09/22 08:38:52;;;;;;;19.15;17.77;;;;;;;-141.02;64.35;42079.63;5092216;28;20282;-58
2023/09/22 08:41:19;;;;;;;19.17;17.77;;;;;;;-141.02;64.76;42112.28;5092293;28;20189;-58
2023/09/22 08:43:47;;;;;;;19.20;17.83;;;;;;;-141.02;63.96;42148.75;5092053;28;20189;-58
2023/09/22 08:46:17;;;;;;;19.08;17.75;;;;;;;-141.02;62.39;42275.41;5091932;28;20197;-58
2023/09/22 08:48:44;;;;;;;19.17;17.98;;;;;;;-141.02;63.34;42457.75;5092263;28;20254;-58
2023/09/22 08:51:11;;;;;;;19.70;18.40;;;;;;;-141.02;61.83;42348.34;5092193;28;20239;-58
2023/09/22 08:53:38;;;;;;;19.98;18.67;;;;;;;-141.02;60.94;42260.06;5091791;28;20614;-58
2023/09/22 08:56:06;;;;;;;20.08;18.80;;;;;;;-141.02;63.29;42521.13;5092087;28;20193;-58
2023/09/22 08:58:34;;;;;;;19.65;18.45;;;;;;;-141.02;60.62;42505.75;5092133;28;20197;-58
2023/09/22 09:01:02;;;;;;;19.65;18.45;;;;;;;-141.02;62.33;43029.84;5092149;28;20197;-58
2023/09/22 09:03:32;;;;;;;20.13;18.92;;;;;;;-141.02;59.43;42651.66;5091798;28;20714;-58
2023/09/22 09:06:07;;;;;;;20.70;19.50;;;;;;;-141.02;60.73;43116.22;5092062;28;20189;-58
2023/09/22 09:08:35;;;;;;;20.08;18.88;;;;;;;-141.02;60.76;42536.47;5091766;28;20193;-58
2023/09/22 09:11:07;;;;;;;20.48;19.27;;;;;;;-141.02;60.72;42578.69;5121093;28;20235;-57
2023/09/22 09:13:35;;;;;;;21.90;20.70;;;;;;;-141.02;60.82;42528.78;5132196;27;20694;-57
2023/09/22 09:16:06;;;;;;;21.10;19.90;;;;;;;-141.02;60.34;42636.28;5132632;27;20189;-57
2023/09/22 09:18:35;;;;;;;21.85;20.65;;;;;;;-141.02;61.67;42290.78;5136075;27;20193;-58
2023/09/22 09:21:14;;;;;;;21.15;20.05;;;;;;;-141.02;61.63;42333.00;5136877;27;20196;-57
2023/09/22 09:23:52;;;;;;;21.52;20.42;;;;;;;-141.02;61.37;42736.13;5136830;27;20195;-58
2023/09/22 09:26:24;;;;;;;21.63;20.52;;;;;;;-141.02;60.38;42768.75;5136491;27;20185;-58
2023/09/22 09:28:51;;;;;;;21.58;20.48;;;;;;;-141.02;61.14;42732.28;5136424;27;20197;-57
2023/09/22 09:31:18;;;;;;;21.52;20.42;;;;;;;-141.02;59.54;43093.19;5136605;27;20239;-58
2023/09/22 09:33:52;;;;;;;22.45;21.35;;;;;;;-141.02;58.37;43002.97;5136554;27;20231;-57
2023/09/22 09:36:20;;;;;;;22.70;21.60;;;;;;;-141.02;58.51;43137.34;5136296;27;20193;-57
2023/09/22 09:38:47;;;;;;;22.35;21.25;;;;;;;-141.02;57.29;43154.63;5136304;27;20740;-58
2023/09/22 09:41:16;;;;;;;22.45;21.35;;;;;;;-141.02;58.06;43050.97;5136154;27;20283;-57
2023/09/22 09:43:46;;;;;;;22.50;21.40;;;;;;;-141.02;57.49;43189.19;5136045;27;20193;-57
2023/09/22 09:46:17;;;;;;;22.75;21.55;;;;;;;-141.02;57.78;43442.63;5135969;27;20196;-57
2023/09/22 09:48:47;;;;;;;23.38;22.20;;;;;;;-141.02;57.29;43843.97;5136845;27;20191;-57
2023/09/22 09:51:20;;;;;;;23.25;22.05;;;;;;;-141.02;56.27;44080.16;5136309;27;20219;-58
2023/09/22 09:53:47;;;;;;;24.33;23.13;;;;;;;-141.02;56.49;43669.22;5135947;27;20718;-58
2023/09/22 09:56:15;;;;;;;23.10;21.90;;;;;;;-141.02;57.62;42987.59;5136342;27;20192;-57
2023/09/22 09:58:45;;;;;;;23.15;21.95;;;;;;;-141.02;58.05;43008.72;5136397;27;20584;-58
2023/09/22 10:01:13;;;;;;;22.65;21.45;;;;;;;-141.02;58.87;43473.34;5136399;27;20227;-57
2023/09/22 10:03:42;;;;;;;23.67;22.48;;;;;;;-141.02;57.49;43513.69;5135909;27;20228;-58
2023/09/22 10:06:12;;;;;;;22.80;21.60;;;;;;;-141.02;57.06;43419.59;5135621;27;20243;-58
2023/09/22 10:08:41;;;;;;;23.60;22.40;;;;;;;-141.02;57.19;43231.44;5135895;27;20193;-58
2023/09/22 10:11:10;;;;;;;22.10;21.00;;;;;;;-141.02;57.61;43254.47;5135394;27;20236;-58
2023/09/22 10:13:38;;;;;;;22.17;21.08;;;;;;;-141.02;56.28;43415.75;5135468;27;20271;-58
2023/09/22 10:16:06;;;;;;;21.95;20.75;;;;;;;-141.02;57.12;43676.91;5135603;27;20224;-58
2023/09/22 10:18:47;;;;;;;21.80;20.60;;;;;;;-141.02;56.36;43208.38;5135452;27;20189;-58
2023/09/22 10:21:39;;;;;;;21.75;20.55;;;;;;;-141.02;56.57;43538.63;5135262;27;20649;-58
2023/09/22 10:24:23;;;;;;;24.08;22.67;;;;;;;-141.02;56.07;43129.66;5135728;27;20237;-57
2023/09/22 10:27:13;;;;;;;22.20;20.90;;;;;;;-141.02;55.74;43554.00;5135880;27;20189;-57
2023/09/22 10:29:54;;;;;;;21.55;20.35;;;;;;;-141.02;55.80;43260.22;5135244;27;20678;-58
2023/09/22 10:32:27;;;;;;;21.80;20.58;;;;;;;-141.02;56.01;43434.94;5135533;27;20219;-58
2023/09/22 10:34:56;;;;;;;21.95;20.67;;;;;;;-141.02;55.72;43813.22;5135684;27;20254;-58
2023/09/22 10:37:24;;;;;;;22.52;21.17;;;;;;;-141.02;54.28;43692.25;5135195;27;20192;-58
2023/09/22 10:39:55;;;;;;;23.23;21.92;;;;;;;-141.02;54.44;44034.06;5135578;27;20583;-58
2023/09/22 10:42:24;;;;;;;21.55;20.25;;;;;;;-141.02;53.88;44623.69;5135485;27;20184;-58
2023/09/22 10:44:58;;;;;;;23.13;21.73;;;;;;;-141.02;53.60;43673.06;5135317;27;20203;-58
2023/09/22 10:47:41;;;;;;;22.05;20.75;;;;;;;-141.02;53.16;43611.59;5135448;27;20188;-58
2023/09/22 10:50:19;;;;;;;22.92;21.63;;;;;;;-141.02;54.12;43123.91;5132753;27;20588;-57
2023/09/22 10:52:56;;;;;;;22.88;21.58;;;;;;;-141.02;55.60;43845.88;5134714;27;20188;-58
2023/09/22 10:55:30;;;;;;;23.00;21.70;;;;;;;-141.02;53.37;44064.81;5134914;27;20227;-58
2023/09/22 10:57:58;;;;;;;22.92;21.63;;;;;;;-141.02;53.42;43976.47;5135025;27;20188;-58
2023/09/22 11:00:26;;;;;;;22.50;21.20;;;;;;;-141.02;53.49;43845.88;5134535;27;20188;-58
2023/09/22 11:02:54;;;;;;;22.80;21.40;;;;;;;-141.02;54.12;44155.06;5134837;27;20241;-58
2023/09/22 11:05:23;;;;;;;21.90;20.60;;;;;;;-141.02;52.12;44049.44;5134434;27;20192;-58